sensor_id;sensor_type;location;lat;lon;timestamp;P1;durP1;ratioP1;P2;durP2;ratioP2
51746;SDS011;37825;40.088;18.302;2023-02-10T00:01:25;11.60;;;7.27;;
51746;SDS011;37825;40.088;18.302;2023-02-10T00:03:54;11.33;;;7.40;;
51746;SDS011;37825;40.088;18.302;2023-02-10T00:06:24;11.50;;;6.37;;
51746;SDS011;37825;40.088;18.302;2023-02-10T00:08:54;8.23;;;6.87;;
51746;SDS011;37825;40.088;18.302;2023-02-10T00:11:23;8.30;;;7.33;;
51746;SDS011;37825;40.088;18.302;2023-02-10T00:14:12;11.20;;;6.10;;
51746;SDS011;37825;40.088;18.302;2023-02-10T00:16:40;13.57;;;7.67;;
51746;SDS011;37825;40.088;18.302;2023-02-10T00:19:09;8.50;;;7.20;;
51746;SDS011;37825;40.088;18.302;2023-02-10T00:21:37;11.47;;;7.30;;
51746;SDS011;37825;40.088;18.302;2023-02-10T00:24:06;8.67;;;6.20;;
51746;SDS011;37825;40.088;18.302;2023-02-10T00:26:34;6.90;;;5.83;;
51746;SDS011;37825;40.088;18.302;2023-02-10T00:29:03;8.47;;;6.23;;
51746;SDS011;37825;40.088;18.302;2023-02-10T00:31:32;8.93;;;5.67;;
51746;SDS011;37825;40.088;18.302;2023-02-10T00:34:00;8.90;;;6.30;;
51746;SDS011;37825;40.088;18.302;2023-02-10T00:36:28;11.40;;;7.53;;
51746;SDS011;37825;40.088;18.302;2023-02-10T00:38:56;9.60;;;6.53;;
51746;SDS011;37825;40.088;18.302;2023-02-10T00:41:26;8.50;;;6.00;;
51746;SDS011;37825;40.088;18.302;2023-02-10T00:43:54;7.13;;;4.90;;
51746;SDS011;37825;40.088;18.302;2023-02-10T00:46:22;5.23;;;4.50;;
51746;SDS011;37825;40.088;18.302;2023-02-10T00:48:50;6.03;;;4.80;;
51746;SDS011;37825;40.088;18.302;2023-02-10T00:51:19;8.30;;;4.83;;
51746;SDS011;37825;40.088;18.302;2023-02-10T00:53:48;6.20;;;4.83;;
51746;SDS011;37825;40.088;18.302;2023-02-10T00:58:47;7.10;;;4.23;;
51746;SDS011;37825;40.088;18.302;2023-02-10T01:01:16;7.53;;;4.10;;
51746;SDS011;37825;40.088;18.302;2023-02-10T01:03:44;5.33;;;4.00;;
51746;SDS011;37825;40.088;18.302;2023-02-10T01:06:13;5.73;;;4.37;;
51746;SDS011;37825;40.088;18.302;2023-02-10T01:08:42;6.70;;;4.17;;
51746;SDS011;37825;40.088;18.302;2023-02-10T01:11:10;5.90;;;3.70;;
51746;SDS011;37825;40.088;18.302;2023-02-10T01:13:40;7.37;;;4.23;;
51746;SDS011;37825;40.088;18.302;2023-02-10T01:16:10;4.73;;;4.20;;
51746;SDS011;37825;40.088;18.302;2023-02-10T01:18:40;5.03;;;3.97;;
51746;SDS011;37825;40.088;18.302;2023-02-10T01:21:15;7.67;;;4.83;;
51746;SDS011;37825;40.088;18.302;2023-02-10T01:23:44;7.47;;;4.93;;
51746;SDS011;37825;40.088;18.302;2023-02-10T01:26:13;7.20;;;5.27;;
51746;SDS011;37825;40.088;18.302;2023-02-10T01:28:41;8.50;;;4.67;;
51746;SDS011;37825;40.088;18.302;2023-02-10T01:31:11;8.17;;;4.60;;
51746;SDS011;37825;40.088;18.302;2023-02-10T01:33:40;5.90;;;4.50;;
51746;SDS011;37825;40.088;18.302;2023-02-10T01:36:10;7.17;;;4.00;;
51746;SDS011;37825;40.088;18.302;2023-02-10T01:38:39;5.30;;;3.53;;
51746;SDS011;37825;40.088;18.302;2023-02-10T01:41:07;7.77;;;3.80;;
51746;SDS011;37825;40.088;18.302;2023-02-10T01:43:55;6.73;;;4.33;;
51746;SDS011;37825;40.088;18.302;2023-02-10T01:46:26;5.87;;;3.60;;
51746;SDS011;37825;40.088;18.302;2023-02-10T01:48:55;6.63;;;4.03;;
51746;SDS011;37825;40.088;18.302;2023-02-10T01:51:28;6.93;;;4.13;;
51746;SDS011;37825;40.088;18.302;2023-02-10T01:53:59;6.30;;;3.57;;
51746;SDS011;37825;40.088;18.302;2023-02-10T01:56:28;4.73;;;3.90;;
51746;SDS011;37825;40.088;18.302;2023-02-10T01:58:56;5.40;;;3.63;;
51746;SDS011;37825;40.088;18.302;2023-02-10T02:01:25;6.00;;;4.03;;
51746;SDS011;37825;40.088;18.302;2023-02-10T02:03:53;6.10;;;4.33;;
51746;SDS011;37825;40.088;18.302;2023-02-10T02:06:21;7.33;;;4.33;;
51746;SDS011;37825;40.088;18.302;2023-02-10T02:08:50;6.57;;;4.33;;
51746;SDS011;37825;40.088;18.302;2023-02-10T02:11:20;5.93;;;4.67;;
51746;SDS011;37825;40.088;18.302;2023-02-10T02:14:12;8.87;;;4.80;;
51746;SDS011;37825;40.088;18.302;2023-02-10T02:16:46;5.27;;;3.67;;
51746;SDS011;37825;40.088;18.302;2023-02-10T02:32:44;5.77;;;3.47;;
51746;SDS011;37825;40.088;18.302;2023-02-10T02:35:17;5.00;;;3.10;;
51746;SDS011;37825;40.088;18.302;2023-02-10T02:37:48;3.97;;;2.80;;
51746;SDS011;37825;40.088;18.302;2023-02-10T02:40:17;5.57;;;3.33;;
51746;SDS011;37825;40.088;18.302;2023-02-10T02:42:45;4.57;;;3.53;;
51746;SDS011;37825;40.088;18.302;2023-02-10T02:45:19;4.53;;;3.30;;
51746;SDS011;37825;40.088;18.302;2023-02-10T02:47:53;5.93;;;3.20;;
51746;SDS011;37825;40.088;18.302;2023-02-10T03:01:30;6.17;;;3.80;;
51746;SDS011;37825;40.088;18.302;2023-02-10T03:03:59;7.77;;;3.70;;
51746;SDS011;37825;40.088;18.302;2023-02-10T03:06:32;6.93;;;3.87;;
51746;SDS011;37825;40.088;18.302;2023-02-10T03:09:01;5.37;;;4.57;;
51746;SDS011;37825;40.088;18.302;2023-02-10T03:11:29;7.13;;;3.83;;
51746;SDS011;37825;40.088;18.302;2023-02-10T03:13:57;6.37;;;3.80;;
51746;SDS011;37825;40.088;18.302;2023-02-10T03:16:25;4.97;;;3.67;;
51746;SDS011;37825;40.088;18.302;2023-02-10T03:18:54;4.83;;;3.63;;
51746;SDS011;37825;40.088;18.302;2023-02-10T03:21:22;6.90;;;3.80;;
51746;SDS011;37825;40.088;18.302;2023-02-10T03:23:52;6.63;;;3.37;;
51746;SDS011;37825;40.088;18.302;2023-02-10T03:26:20;4.67;;;3.37;;
51746;SDS011;37825;40.088;18.302;2023-02-10T03:28:48;6.60;;;2.93;;
51746;SDS011;37825;40.088;18.302;2023-02-10T03:31:17;4.80;;;3.27;;
51746;SDS011;37825;40.088;18.302;2023-02-10T03:33:45;3.93;;;3.13;;
51746;SDS011;37825;40.088;18.302;2023-02-10T03:36:13;3.90;;;3.43;;
51746;SDS011;37825;40.088;18.302;2023-02-10T03:38:42;4.63;;;3.00;;
51746;SDS011;37825;40.088;18.302;2023-02-10T03:41:10;4.43;;;3.80;;
51746;SDS011;37825;40.088;18.302;2023-02-10T03:43:39;6.23;;;3.53;;
51746;SDS011;37825;40.088;18.302;2023-02-10T03:46:08;6.97;;;3.30;;
51746;SDS011;37825;40.088;18.302;2023-02-10T03:48:36;5.37;;;3.33;;
51746;SDS011;37825;40.088;18.302;2023-02-10T03:51:05;4.77;;;2.87;;
51746;SDS011;37825;40.088;18.302;2023-02-10T03:53:34;5.47;;;2.90;;
51746;SDS011;37825;40.088;18.302;2023-02-10T03:56:03;6.07;;;3.03;;
51746;SDS011;37825;40.088;18.302;2023-02-10T03:58:31;4.80;;;3.80;;
51746;SDS011;37825;40.088;18.302;2023-02-10T04:00:59;3.23;;;2.90;;
51746;SDS011;37825;40.088;18.302;2023-02-10T04:03:27;4.00;;;3.10;;
51746;SDS011;37825;40.088;18.302;2023-02-10T04:05:56;6.03;;;3.50;;
51746;SDS011;37825;40.088;18.302;2023-02-10T04:08:25;5.37;;;3.40;;
51746;SDS011;37825;40.088;18.302;2023-02-10T04:10:53;5.83;;;3.07;;
51746;SDS011;37825;40.088;18.302;2023-02-10T04:13:21;6.73;;;3.80;;
51746;SDS011;37825;40.088;18.302;2023-02-10T04:15:59;7.10;;;5.33;;
51746;SDS011;37825;40.088;18.302;2023-02-10T04:18:28;11.37;;;6.67;;
51746;SDS011;37825;40.088;18.302;2023-02-10T04:20:57;7.73;;;5.63;;
51746;SDS011;37825;40.088;18.302;2023-02-10T04:23:25;10.40;;;6.30;;
51746;SDS011;37825;40.088;18.302;2023-02-10T04:25:54;5.20;;;4.30;;
51746;SDS011;37825;40.088;18.302;2023-02-10T04:28:22;9.40;;;5.13;;
51746;SDS011;37825;40.088;18.302;2023-02-10T04:30:52;5.37;;;4.00;;
51746;SDS011;37825;40.088;18.302;2023-02-10T04:33:21;5.33;;;4.30;;
51746;SDS011;37825;40.088;18.302;2023-02-10T04:35:52;6.70;;;4.27;;
51746;SDS011;37825;40.088;18.302;2023-02-10T04:38:21;6.37;;;4.67;;
51746;SDS011;37825;40.088;18.302;2023-02-10T04:40:51;4.65;;;4.25;;
51746;SDS011;37825;40.088;18.302;2023-02-10T04:43:19;8.20;;;3.97;;
51746;SDS011;37825;40.088;18.302;2023-02-10T04:45:50;9.23;;;4.60;;
51746;SDS011;37825;40.088;18.302;2023-02-10T04:48:18;4.93;;;4.00;;
51746;SDS011;37825;40.088;18.302;2023-02-10T04:50:48;7.73;;;4.47;;
51746;SDS011;37825;40.088;18.302;2023-02-10T04:53:17;9.33;;;6.13;;
51746;SDS011;37825;40.088;18.302;2023-02-10T04:55:45;6.77;;;5.87;;
51746;SDS011;37825;40.088;18.302;2023-02-10T04:58:14;9.30;;;6.23;;
51746;SDS011;37825;40.088;18.302;2023-02-10T05:00:42;10.07;;;6.10;;
51746;SDS011;37825;40.088;18.302;2023-02-10T05:03:11;25.57;;;17.57;;
51746;SDS011;37825;40.088;18.302;2023-02-10T05:05:39;20.70;;;14.33;;
51746;SDS011;37825;40.088;18.302;2023-02-10T05:08:09;18.87;;;12.10;;
51746;SDS011;37825;40.088;18.302;2023-02-10T05:10:38;19.97;;;11.07;;
51746;SDS011;37825;40.088;18.302;2023-02-10T05:13:06;13.83;;;9.47;;
51746;SDS011;37825;40.088;18.302;2023-02-10T05:15:34;9.20;;;7.20;;
51746;SDS011;37825;40.088;18.302;2023-02-10T05:18:03;29.07;;;18.73;;
51746;SDS011;37825;40.088;18.302;2023-02-10T05:20:31;147.97;;;79.47;;
51746;SDS011;37825;40.088;18.302;2023-02-10T05:22:59;65.83;;;41.77;;
51746;SDS011;37825;40.088;18.302;2023-02-10T05:25:28;28.43;;;19.13;;
51746;SDS011;37825;40.088;18.302;2023-02-10T05:27:56;14.43;;;9.47;;
51746;SDS011;37825;40.088;18.302;2023-02-10T05:30:24;11.57;;;7.50;;
51746;SDS011;37825;40.088;18.302;2023-02-10T05:32:52;12.57;;;9.57;;
51746;SDS011;37825;40.088;18.302;2023-02-10T05:35:20;16.53;;;11.87;;
51746;SDS011;37825;40.088;18.302;2023-02-10T05:37:49;20.43;;;13.57;;
51746;SDS011;37825;40.088;18.302;2023-02-10T05:40:17;18.03;;;10.60;;
51746;SDS011;37825;40.088;18.302;2023-02-10T05:42:45;13.33;;;10.07;;
51746;SDS011;37825;40.088;18.302;2023-02-10T05:45:13;14.57;;;7.30;;
51746;SDS011;37825;40.088;18.302;2023-02-10T05:47:42;11.30;;;8.60;;
51746;SDS011;37825;40.088;18.302;2023-02-10T05:50:10;11.13;;;7.97;;
51746;SDS011;37825;40.088;18.302;2023-02-10T05:52:38;16.30;;;9.33;;
51746;SDS011;37825;40.088;18.302;2023-02-10T05:55:07;15.90;;;10.73;;
51746;SDS011;37825;40.088;18.302;2023-02-10T05:57:35;6.67;;;5.60;;
51746;SDS011;37825;40.088;18.302;2023-02-10T06:00:04;7.20;;;5.00;;
51746;SDS011;37825;40.088;18.302;2023-02-10T06:02:42;6.57;;;5.50;;
51746;SDS011;37825;40.088;18.302;2023-02-10T06:05:11;7.33;;;4.87;;
51746;SDS011;37825;40.088;18.302;2023-02-10T06:07:39;7.90;;;4.87;;
51746;SDS011;37825;40.088;18.302;2023-02-10T06:10:07;5.20;;;3.87;;
51746;SDS011;37825;40.088;18.302;2023-02-10T06:12:35;4.37;;;2.37;;
51746;SDS011;37825;40.088;18.302;2023-02-10T06:15:03;7.07;;;5.40;;
51746;SDS011;37825;40.088;18.302;2023-02-10T06:17:32;7.10;;;4.43;;
51746;SDS011;37825;40.088;18.302;2023-02-10T06:20:00;8.37;;;5.13;;
51746;SDS011;37825;40.088;18.302;2023-02-10T06:22:28;7.07;;;4.80;;
51746;SDS011;37825;40.088;18.302;2023-02-10T06:24:57;10.83;;;4.40;;
51746;SDS011;37825;40.088;18.302;2023-02-10T06:27:25;8.37;;;5.20;;
51746;SDS011;37825;40.088;18.302;2023-02-10T06:29:53;13.40;;;9.77;;
51746;SDS011;37825;40.088;18.302;2023-02-10T06:32:22;19.97;;;14.23;;
51746;SDS011;37825;40.088;18.302;2023-02-10T06:34:51;29.17;;;17.33;;
51746;SDS011;37825;40.088;18.302;2023-02-10T06:37:19;51.97;;;38.07;;
51746;SDS011;37825;40.088;18.302;2023-02-10T06:39:47;26.93;;;18.23;;
51746;SDS011;37825;40.088;18.302;2023-02-10T06:42:15;30.47;;;18.27;;
51746;SDS011;37825;40.088;18.302;2023-02-10T06:44:43;29.63;;;20.97;;
51746;SDS011;37825;40.088;18.302;2023-02-10T06:47:12;40.73;;;24.83;;
51746;SDS011;37825;40.088;18.302;2023-02-10T06:49:40;33.50;;;23.53;;
51746;SDS011;37825;40.088;18.302;2023-02-10T06:52:08;37.17;;;22.77;;
51746;SDS011;37825;40.088;18.302;2023-02-10T06:54:43;27.23;;;20.37;;
51746;SDS011;37825;40.088;18.302;2023-02-10T06:57:11;29.50;;;20.57;;
51746;SDS011;37825;40.088;18.302;2023-02-10T06:59:39;32.83;;;20.53;;
51746;SDS011;37825;40.088;18.302;2023-02-10T07:02:10;34.80;;;25.07;;
51746;SDS011;37825;40.088;18.302;2023-02-10T07:04:38;63.17;;;38.17;;
51746;SDS011;37825;40.088;18.302;2023-02-10T07:07:06;51.47;;;31.07;;
51746;SDS011;37825;40.088;18.302;2023-02-10T07:09:35;40.73;;;27.43;;
51746;SDS011;37825;40.088;18.302;2023-02-10T07:12:04;31.30;;;21.03;;
51746;SDS011;37825;40.088;18.302;2023-02-10T07:14:32;29.20;;;20.50;;
51746;SDS011;37825;40.088;18.302;2023-02-10T07:17:02;20.80;;;14.30;;
51746;SDS011;37825;40.088;18.302;2023-02-10T07:19:30;23.30;;;14.57;;
51746;SDS011;37825;40.088;18.302;2023-02-10T07:21:58;20.60;;;16.13;;
51746;SDS011;37825;40.088;18.302;2023-02-10T07:24:28;26.43;;;17.87;;
51746;SDS011;37825;40.088;18.302;2023-02-10T07:26:57;31.20;;;22.83;;
51746;SDS011;37825;40.088;18.302;2023-02-10T07:29:25;27.20;;;22.53;;
51746;SDS011;37825;40.088;18.302;2023-02-10T07:31:54;26.13;;;18.40;;
51746;SDS011;37825;40.088;18.302;2023-02-10T07:34:24;18.43;;;14.27;;
51746;SDS011;37825;40.088;18.302;2023-02-10T07:36:52;21.73;;;12.93;;
51746;SDS011;37825;40.088;18.302;2023-02-10T07:39:21;21.70;;;13.97;;
51746;SDS011;37825;40.088;18.302;2023-02-10T07:41:49;19.37;;;13.70;;
51746;SDS011;37825;40.088;18.302;2023-02-10T07:44:20;22.23;;;17.97;;
51746;SDS011;37825;40.088;18.302;2023-02-10T07:46:48;17.97;;;9.80;;
51746;SDS011;37825;40.088;18.302;2023-02-10T07:49:19;7.13;;;5.33;;
51746;SDS011;37825;40.088;18.302;2023-02-10T07:51:47;6.40;;;5.13;;
51746;SDS011;37825;40.088;18.302;2023-02-10T07:54:15;9.27;;;5.93;;
51746;SDS011;37825;40.088;18.302;2023-02-10T07:56:43;9.83;;;6.70;;
51746;SDS011;37825;40.088;18.302;2023-02-10T07:59:12;10.57;;;7.03;;
51746;SDS011;37825;40.088;18.302;2023-02-10T08:01:40;7.30;;;5.70;;
51746;SDS011;37825;40.088;18.302;2023-02-10T08:04:10;8.43;;;6.23;;
51746;SDS011;37825;40.088;18.302;2023-02-10T08:06:38;10.90;;;7.30;;
51746;SDS011;37825;40.088;18.302;2023-02-10T08:09:07;5.93;;;3.83;;
51746;SDS011;37825;40.088;18.302;2023-02-10T08:11:35;5.83;;;3.70;;
51746;SDS011;37825;40.088;18.302;2023-02-10T08:14:03;7.47;;;4.00;;
51746;SDS011;37825;40.088;18.302;2023-02-10T08:16:32;5.77;;;4.37;;
51746;SDS011;37825;40.088;18.302;2023-02-10T08:19:00;6.77;;;6.10;;
51746;SDS011;37825;40.088;18.302;2023-02-10T08:21:29;9.60;;;5.60;;
51746;SDS011;37825;40.088;18.302;2023-02-10T08:23:58;11.93;;;5.43;;
51746;SDS011;37825;40.088;18.302;2023-02-10T08:26:26;10.47;;;6.13;;
51746;SDS011;37825;40.088;18.302;2023-02-10T08:28:55;5.67;;;4.50;;
51746;SDS011;37825;40.088;18.302;2023-02-10T08:31:26;6.20;;;4.80;;
51746;SDS011;37825;40.088;18.302;2023-02-10T08:33:54;6.43;;;5.00;;
51746;SDS011;37825;40.088;18.302;2023-02-10T08:36:23;4.43;;;3.50;;
51746;SDS011;37825;40.088;18.302;2023-02-10T08:38:52;5.37;;;2.77;;
51746;SDS011;37825;40.088;18.302;2023-02-10T08:41:21;4.73;;;3.57;;
51746;SDS011;37825;40.088;18.302;2023-02-10T08:43:49;4.37;;;2.80;;
51746;SDS011;37825;40.088;18.302;2023-02-10T08:46:17;6.87;;;4.73;;
51746;SDS011;37825;40.088;18.302;2023-02-10T08:48:46;6.00;;;4.77;;
51746;SDS011;37825;40.088;18.302;2023-02-10T08:51:14;7.17;;;4.80;;
51746;SDS011;37825;40.088;18.302;2023-02-10T08:53:43;10.50;;;7.93;;
51746;SDS011;37825;40.088;18.302;2023-02-10T08:56:13;6.73;;;5.13;;
51746;SDS011;37825;40.088;18.302;2023-02-10T08:58:42;7.97;;;6.47;;
51746;SDS011;37825;40.088;18.302;2023-02-10T09:01:11;3.77;;;3.23;;
51746;SDS011;37825;40.088;18.302;2023-02-10T09:03:40;13.70;;;7.53;;
51746;SDS011;37825;40.088;18.302;2023-02-10T09:06:16;12.60;;;9.40;;
51746;SDS011;37825;40.088;18.302;2023-02-10T09:08:45;6.30;;;4.70;;
51746;SDS011;37825;40.088;18.302;2023-02-10T09:11:15;4.90;;;4.00;;
51746;SDS011;37825;40.088;18.302;2023-02-10T09:13:43;4.97;;;4.47;;
51746;SDS011;37825;40.088;18.302;2023-02-10T09:25:04;8.57;;;6.07;;
51746;SDS011;37825;40.088;18.302;2023-02-10T09:27:33;5.93;;;4.05;;
51746;SDS011;37825;40.088;18.302;2023-02-10T09:30:01;6.53;;;3.60;;
51746;SDS011;37825;40.088;18.302;2023-02-10T09:32:30;4.47;;;3.60;;
51746;SDS011;37825;40.088;18.302;2023-02-10T09:34:58;6.60;;;3.58;;
51746;SDS011;37825;40.088;18.302;2023-02-10T09:37:27;4.30;;;3.35;;
51746;SDS011;37825;40.088;18.302;2023-02-10T09:39:55;10.40;;;4.30;;
51746;SDS011;37825;40.088;18.302;2023-02-10T09:42:38;7.63;;;6.20;;
51746;SDS011;37825;40.088;18.302;2023-02-10T09:45:10;7.68;;;4.60;;
51746;SDS011;37825;40.088;18.302;2023-02-10T09:50:19;5.53;;;4.65;;
51746;SDS011;37825;40.088;18.302;2023-02-10T09:55:25;5.97;;;3.78;;
51746;SDS011;37825;40.088;18.302;2023-02-10T09:58:00;4.60;;;2.88;;
51746;SDS011;37825;40.088;18.302;2023-02-10T10:03:00;4.53;;;3.53;;
51746;SDS011;37825;40.088;18.302;2023-02-10T10:08:01;8.18;;;6.13;;
51746;SDS011;37825;40.088;18.302;2023-02-10T10:10:32;5.47;;;4.33;;
51746;SDS011;37825;40.088;18.302;2023-02-10T10:13:02;5.95;;;2.60;;
51746;SDS011;37825;40.088;18.302;2023-02-10T10:15:31;7.18;;;3.88;;
51746;SDS011;37825;40.088;18.302;2023-02-10T10:18:16;5.38;;;4.03;;
51746;SDS011;37825;40.088;18.302;2023-02-10T10:21:05;5.90;;;4.63;;
51746;SDS011;37825;40.088;18.302;2023-02-10T10:31:40;5.15;;;2.20;;
51746;SDS011;37825;40.088;18.302;2023-02-10T10:34:11;5.43;;;2.97;;
51746;SDS011;37825;40.088;18.302;2023-02-10T10:36:47;4.85;;;3.75;;
51746;SDS011;37825;40.088;18.302;2023-02-10T10:39:21;3.75;;;3.08;;
51746;SDS011;37825;40.088;18.302;2023-02-10T10:41:51;5.85;;;4.13;;
51746;SDS011;37825;40.088;18.302;2023-02-10T10:44:20;5.68;;;3.17;;
51746;SDS011;37825;40.088;18.302;2023-02-10T10:46:50;5.65;;;4.20;;
51746;SDS011;37825;40.088;18.302;2023-02-10T10:49:20;5.95;;;5.38;;
51746;SDS011;37825;40.088;18.302;2023-02-10T10:51:49;3.47;;;2.97;;
51746;SDS011;37825;40.088;18.302;2023-02-10T10:54:18;3.40;;;2.85;;
51746;SDS011;37825;40.088;18.302;2023-02-10T10:56:53;6.70;;;5.97;;
51746;SDS011;37825;40.088;18.302;2023-02-10T10:59:38;7.85;;;5.50;;
51746;SDS011;37825;40.088;18.302;2023-02-10T11:02:19;4.93;;;3.47;;
51746;SDS011;37825;40.088;18.302;2023-02-10T11:07:35;5.65;;;4.90;;
51746;SDS011;37825;40.088;18.302;2023-02-10T11:10:05;5.47;;;3.40;;
51746;SDS011;37825;40.088;18.302;2023-02-10T11:12:36;4.70;;;3.35;;
51746;SDS011;37825;40.088;18.302;2023-02-10T11:17:51;6.68;;;3.40;;
51746;SDS011;37825;40.088;18.302;2023-02-10T11:20:25;11.95;;;9.23;;
51746;SDS011;37825;40.088;18.302;2023-02-10T11:23:10;10.65;;;5.97;;
51746;SDS011;37825;40.088;18.302;2023-02-10T11:25:39;5.20;;;4.47;;
51746;SDS011;37825;40.088;18.302;2023-02-10T11:28:16;7.25;;;5.40;;
51746;SDS011;37825;40.088;18.302;2023-02-10T11:30:46;7.85;;;4.93;;
51746;SDS011;37825;40.088;18.302;2023-02-10T11:33:21;4.10;;;3.22;;
51746;SDS011;37825;40.088;18.302;2023-02-10T11:35:51;6.90;;;4.32;;
51746;SDS011;37825;40.088;18.302;2023-02-10T11:38:20;4.80;;;3.35;;
51746;SDS011;37825;40.088;18.302;2023-02-10T11:43:23;3.63;;;2.58;;
51746;SDS011;37825;40.088;18.302;2023-02-10T11:45:54;3.80;;;3.38;;
51746;SDS011;37825;40.088;18.302;2023-02-10T11:48:24;5.30;;;3.93;;
51746;SDS011;37825;40.088;18.302;2023-02-10T11:53:40;4.07;;;3.67;;
51746;SDS011;37825;40.088;18.302;2023-02-10T11:56:15;3.65;;;2.95;;
51746;SDS011;37825;40.088;18.302;2023-02-10T12:11:53;5.63;;;2.85;;
51746;SDS011;37825;40.088;18.302;2023-02-10T12:25:12;6.10;;;5.10;;
51746;SDS011;37825;40.088;18.302;2023-02-10T12:27:45;5.22;;;2.60;;
51746;SDS011;37825;40.088;18.302;2023-02-10T12:33:10;3.38;;;2.97;;
51746;SDS011;37825;40.088;18.302;2023-02-10T12:38:19;7.60;;;4.72;;
51746;SDS011;37825;40.088;18.302;2023-02-10T12:51:08;3.58;;;2.72;;
51746;SDS011;37825;40.088;18.302;2023-02-10T12:53:41;3.10;;;2.30;;
51746;SDS011;37825;40.088;18.302;2023-02-10T12:59:00;3.92;;;3.53;;
51746;SDS011;37825;40.088;18.302;2023-02-10T13:01:43;3.15;;;2.25;;
51746;SDS011;37825;40.088;18.302;2023-02-10T13:04:26;3.55;;;2.63;;
51746;SDS011;37825;40.088;18.302;2023-02-10T13:07:16;3.40;;;2.65;;
51746;SDS011;37825;40.088;18.302;2023-02-10T13:09:55;4.22;;;2.92;;
51746;SDS011;37825;40.088;18.302;2023-02-10T13:12:28;5.72;;;4.82;;
51746;SDS011;37825;40.088;18.302;2023-02-10T13:15:01;6.55;;;5.68;;
51746;SDS011;37825;40.088;18.302;2023-02-10T13:17:40;4.97;;;3.65;;
51746;SDS011;37825;40.088;18.302;2023-02-10T13:23:01;5.85;;;4.07;;
51746;SDS011;37825;40.088;18.302;2023-02-10T13:33:35;6.07;;;4.25;;
51746;SDS011;37825;40.088;18.302;2023-02-10T13:36:09;4.05;;;3.38;;
51746;SDS011;37825;40.088;18.302;2023-02-10T13:38:39;6.22;;;5.50;;
51746;SDS011;37825;40.088;18.302;2023-02-10T13:41:21;5.75;;;4.28;;
51746;SDS011;37825;40.088;18.302;2023-02-10T13:44:16;7.72;;;5.20;;
51746;SDS011;37825;40.088;18.302;2023-02-10T13:46:51;6.50;;;3.90;;
51746;SDS011;37825;40.088;18.302;2023-02-10T13:49:22;4.65;;;4.20;;
51746;SDS011;37825;40.088;18.302;2023-02-10T13:51:58;7.85;;;6.05;;
51746;SDS011;37825;40.088;18.302;2023-02-10T13:54:28;7.80;;;6.68;;
51746;SDS011;37825;40.088;18.302;2023-02-10T13:56:57;11.30;;;8.18;;
51746;SDS011;37825;40.088;18.302;2023-02-10T13:59:37;6.93;;;5.85;;
51746;SDS011;37825;40.088;18.302;2023-02-10T14:04:50;4.85;;;4.35;;
51746;SDS011;37825;40.088;18.302;2023-02-10T14:10:05;7.25;;;5.32;;
51746;SDS011;37825;40.088;18.302;2023-02-10T14:12:34;4.78;;;3.80;;
51746;SDS011;37825;40.088;18.302;2023-02-10T14:20:54;3.92;;;2.50;;
51746;SDS011;37825;40.088;18.302;2023-02-10T14:23:22;3.45;;;2.63;;
51746;SDS011;37825;40.088;18.302;2023-02-10T14:25:57;4.20;;;3.00;;
51746;SDS011;37825;40.088;18.302;2023-02-10T14:28:30;3.28;;;2.55;;
51746;SDS011;37825;40.088;18.302;2023-02-10T14:31:04;2.35;;;1.63;;
51746;SDS011;37825;40.088;18.302;2023-02-10T14:33:34;5.05;;;4.55;;
51746;SDS011;37825;40.088;18.302;2023-02-10T14:36:04;5.35;;;2.72;;
51746;SDS011;37825;40.088;18.302;2023-02-10T14:38:34;2.38;;;1.98;;
51746;SDS011;37825;40.088;18.302;2023-02-10T14:41:03;5.40;;;3.95;;
51746;SDS011;37825;40.088;18.302;2023-02-10T14:43:46;6.40;;;4.93;;
51746;SDS011;37825;40.088;18.302;2023-02-10T14:46:18;8.75;;;4.90;;
51746;SDS011;37825;40.088;18.302;2023-02-10T14:48:47;8.23;;;4.93;;
51746;SDS011;37825;40.088;18.302;2023-02-10T14:51:20;6.90;;;4.18;;
51746;SDS011;37825;40.088;18.302;2023-02-10T14:53:48;5.30;;;3.08;;
51746;SDS011;37825;40.088;18.302;2023-02-10T14:56:19;8.70;;;3.90;;
51746;SDS011;37825;40.088;18.302;2023-02-10T14:58:47;4.10;;;3.13;;
51746;SDS011;37825;40.088;18.302;2023-02-10T15:06:19;7.10;;;5.80;;
51746;SDS011;37825;40.088;18.302;2023-02-10T15:11:23;8.18;;;6.38;;
51746;SDS011;37825;40.088;18.302;2023-02-10T15:14:13;7.65;;;5.97;;
51746;SDS011;37825;40.088;18.302;2023-02-10T15:16:44;9.50;;;5.78;;
51746;SDS011;37825;40.088;18.302;2023-02-10T15:19:14;10.50;;;5.43;;
51746;SDS011;37825;40.088;18.302;2023-02-10T15:21:43;5.83;;;4.80;;
51746;SDS011;37825;40.088;18.302;2023-02-10T15:24:22;8.17;;;5.33;;
51746;SDS011;37825;40.088;18.302;2023-02-10T15:26:51;9.13;;;5.80;;
51746;SDS011;37825;40.088;18.302;2023-02-10T15:29:19;11.00;;;8.40;;
51746;SDS011;37825;40.088;18.302;2023-02-10T15:31:52;12.97;;;9.43;;
51746;SDS011;37825;40.088;18.302;2023-02-10T15:37:25;10.60;;;8.83;;
51746;SDS011;37825;40.088;18.302;2023-02-10T15:39:59;16.70;;;7.87;;
51746;SDS011;37825;40.088;18.302;2023-02-10T15:42:31;13.40;;;8.93;;
51746;SDS011;37825;40.088;18.302;2023-02-10T15:45:10;16.07;;;10.20;;
51746;SDS011;37825;40.088;18.302;2023-02-10T15:47:45;17.55;;;10.32;;
51746;SDS011;37825;40.088;18.302;2023-02-10T15:50:14;11.67;;;8.00;;
51746;SDS011;37825;40.088;18.302;2023-02-10T15:52:46;14.37;;;11.00;;
51746;SDS011;37825;40.088;18.302;2023-02-10T15:57:44;12.53;;;8.83;;
51746;SDS011;37825;40.088;18.302;2023-02-10T16:00:32;21.47;;;14.50;;
51746;SDS011;37825;40.088;18.302;2023-02-10T16:03:02;14.57;;;10.37;;
51746;SDS011;37825;40.088;18.302;2023-02-10T16:05:32;20.60;;;14.33;;
51746;SDS011;37825;40.088;18.302;2023-02-10T16:08:03;13.27;;;9.93;;
51746;SDS011;37825;40.088;18.302;2023-02-10T16:10:33;22.00;;;14.07;;
51746;SDS011;37825;40.088;18.302;2023-02-10T16:13:02;25.43;;;14.43;;
51746;SDS011;37825;40.088;18.302;2023-02-10T16:15:32;20.77;;;16.80;;
51746;SDS011;37825;40.088;18.302;2023-02-10T16:18:00;15.27;;;10.13;;
51746;SDS011;37825;40.088;18.302;2023-02-10T16:20:30;41.67;;;29.63;;
51746;SDS011;37825;40.088;18.302;2023-02-10T16:22:59;34.20;;;21.43;;
51746;SDS011;37825;40.088;18.302;2023-02-10T16:25:34;15.43;;;11.63;;
51746;SDS011;37825;40.088;18.302;2023-02-10T16:28:02;36.07;;;27.60;;
51746;SDS011;37825;40.088;18.302;2023-02-10T16:30:31;22.33;;;15.90;;
51746;SDS011;37825;40.088;18.302;2023-02-10T16:33:00;23.93;;;18.90;;
51746;SDS011;37825;40.088;18.302;2023-02-10T16:35:28;29.80;;;23.30;;
51746;SDS011;37825;40.088;18.302;2023-02-10T16:37:56;13.10;;;10.90;;
51746;SDS011;37825;40.088;18.302;2023-02-10T16:40:26;17.87;;;14.53;;
51746;SDS011;37825;40.088;18.302;2023-02-10T16:42:55;21.90;;;18.17;;
51746;SDS011;37825;40.088;18.302;2023-02-10T16:45:24;27.07;;;21.33;;
51746;SDS011;37825;40.088;18.302;2023-02-10T16:47:52;27.43;;;21.20;;
51746;SDS011;37825;40.088;18.302;2023-02-10T16:50:32;29.23;;;23.47;;
51746;SDS011;37825;40.088;18.302;2023-02-10T16:53:01;43.17;;;36.33;;
51746;SDS011;37825;40.088;18.302;2023-02-10T16:55:31;49.90;;;40.30;;
51746;SDS011;37825;40.088;18.302;2023-02-10T16:57:59;32.27;;;25.77;;
51746;SDS011;37825;40.088;18.302;2023-02-10T17:00:27;27.00;;;21.13;;
51746;SDS011;37825;40.088;18.302;2023-02-10T17:02:56;32.20;;;25.67;;
51746;SDS011;37825;40.088;18.302;2023-02-10T17:05:24;45.50;;;35.20;;
51746;SDS011;37825;40.088;18.302;2023-02-10T17:07:53;56.07;;;41.77;;
51746;SDS011;37825;40.088;18.302;2023-02-10T17:10:23;26.47;;;18.53;;